Aeroporto :
LOGIN :

Iscrizione | Disclaimer

   EN    FR    IT 

 










Sommario :    VFR   VFR Marginale   IFR   IFR Intensivo   IFR Molto Intensivo
Visibilità : 
Base nubi : 
>= 8 km
>= 3000ft
5 / 8 km
1000 / 3000 ft
1500m / 5 km
500 / 1000 ft
800 / 1500m
200 / 500 ft
< 800m
< 200 ft
Simboli :   Temporali  Nebbia  Neve Forte  Precipitazioni Forti  Vento > 20 kt
SIGMETs :   Varie  Temporali  Ghiacco  Turbolenza  Onda orograficha  Ceneri Vulcaniche






- Altitudine del aeroporto : 11 ft
- Codice IATA : PVK


LGPZ - Aktion Lefkada Preveza

ULTIMO METAR :
  • 272250Z 00000KT 9999 FEW020 05/03 Q1016 RMK FEW070 BLU

METARs OBSOLETI :
  • 272150Z 13004KT 9999 FEW020 07/05 Q1016 RMK FEW070 BLU
  • 272050Z 03004KT 9999 FEW020 07/05 Q1016 RMK FEW070 BLU

TAF TAF LGPZ
Valido dal 27 a 18 ore il 28 a 18 ore UTC


271700Z 2718/2818 29015KT 9999 FEW020 SCT025
PROB40
TEMPO 2809/2818 5000 RA SCT020 BKN030
PROB40
TEMPO 2810/2816 5000 TSRA SCT012 FEW018CB BKN020
BECMG 2722/2724 VRB05KT
BECMG 2811/2813 28025G35KT



MetMap, La meteo Aeronautica in un colpo d'occhio ! - Copyright ORBIFLY Dicembre 2007 - Disclaimer

ORBIFLY MET'MAP TEAM :

Programmazione e sviluppo : Alexandra Zaïnal
Concezione : Baudouin d'Aumeries
Aiuto per la programmazione : Marc-Olivier Méhu
Supporto tecnico e logistico : Manuel Goepfert
Aiuto per la traduzione : Arnaldo La Scala

Contatto : metmap@orbifly.com




FONTI E CREDITI :

   NOAA